createdAt,value
2019-03-22T00:02:24.781Z,50.73
2019-03-22T00:04:55.541Z,49.73
2019-03-22T00:07:26.590Z,52.67
2019-03-22T00:09:57.115Z,51.87
2019-03-22T00:12:28.273Z,51.43
2019-03-22T00:14:58.480Z,51.70
2019-03-22T00:17:29.555Z,52.07
2019-03-22T00:20:00.064Z,52.37
2019-03-22T00:22:30.275Z,53.63
2019-03-22T00:25:00.616Z,54.87
2019-03-22T00:27:31.084Z,53.93
2019-03-22T00:30:01.748Z,53.20
2019-03-22T00:32:32.100Z,56.27
2019-03-22T00:35:02.633Z,53.97
2019-03-22T00:37:33.727Z,54.93
2019-03-22T00:40:04.201Z,54.93
2019-03-22T00:42:34.396Z,53.40
2019-03-22T00:45:04.630Z,70.53
2019-03-22T00:47:35.279Z,57.80
2019-03-22T00:50:06.082Z,56.47
2019-03-22T00:52:37.038Z,56.67
2019-03-22T00:55:07.437Z,53.90
2019-03-22T00:57:37.994Z,68.92
2019-03-22T01:00:08.967Z,58.27
2019-03-22T01:02:39.729Z,54.57
2019-03-22T01:05:10.828Z,54.07
2019-03-22T01:07:41.239Z,52.37
2019-03-22T01:10:11.376Z,53.73
2019-03-22T01:12:41.675Z,52.53
2019-03-22T01:15:11.813Z,55.50
2019-03-22T01:17:43.155Z,54.53
2019-03-22T01:20:14.115Z,52.53
2019-03-22T01:22:44.717Z,51.37
2019-03-22T01:25:14.857Z,54.87
2019-03-22T01:27:46.060Z,53.47
2019-03-22T01:30:18.942Z,54.07
2019-03-22T01:32:49.999Z,53.23
2019-03-22T01:35:20.542Z,53.10
2019-03-22T01:37:51.999Z,54.00
2019-03-22T01:40:22.845Z,52.63
2019-03-22T01:42:53.143Z,53.63
2019-03-22T01:45:23.800Z,55.87
2019-03-22T01:47:54.089Z,57.80
2019-03-22T01:50:24.591Z,53.37
2019-03-22T01:52:54.666Z,58.33
2019-03-22T01:55:25.293Z,57.37
2019-03-22T01:57:58.398Z,53.83
2019-03-22T02:00:29.072Z,55.87
2019-03-22T02:03:01.119Z,54.00
2019-03-22T02:05:31.302Z,56.07
2019-03-22T02:08:01.779Z,65.00
2019-03-22T02:10:31.932Z,55.60
2019-03-22T02:13:02.362Z,54.97
2019-03-22T02:15:32.523Z,55.27
2019-03-22T02:18:03.761Z,55.63
2019-03-22T02:20:33.847Z,53.57
2019-03-22T02:23:04.091Z,51.93
2019-03-22T02:25:34.281Z,52.20
2019-03-22T02:28:05.529Z,51.43
2019-03-22T02:30:36.024Z,49.13
2019-03-22T02:33:06.178Z,51.63
2019-03-22T02:35:36.731Z,50.33
2019-03-22T02:38:08.022Z,50.23
2019-03-22T02:40:38.475Z,51.03
2019-03-22T02:43:08.845Z,50.67
2019-03-22T02:45:38.898Z,63.73
2019-03-22T02:48:09.057Z,50.70
2019-03-22T02:50:39.989Z,49.97
2019-03-22T02:53:10.193Z,49.07
2019-03-22T02:55:42.532Z,49.03
2019-03-22T02:58:20.289Z,49.40
2019-03-22T03:00:42.939Z,48.50
2019-03-22T03:03:13.409Z,48.20
2019-03-22T03:05:43.567Z,48.20
2019-03-22T03:08:13.741Z,48.57
2019-03-22T03:10:43.920Z,49.97
2019-03-22T03:13:14.198Z,51.50
2019-03-22T03:15:44.436Z,52.37
2019-03-22T03:18:14.560Z,51.83
2019-03-22T03:20:45.612Z,48.50
2019-03-22T03:23:15.768Z,48.37
2019-03-22T03:25:46.229Z,48.73
2019-03-22T03:28:16.319Z,48.80
2019-03-22T03:30:47.148Z,47.30
2019-03-22T03:33:17.347Z,47.67
2019-03-22T03:35:47.475Z,49.33
2019-03-22T03:38:17.619Z,48.33
2019-03-22T03:40:47.840Z,49.87
2019-03-22T03:43:18.121Z,62.67
2019-03-22T03:45:48.690Z,50.43
2019-03-22T03:48:19.647Z,47.67
2019-03-22T03:50:50.132Z,62.27
2019-03-22T03:53:20.447Z,48.63
2019-03-22T03:55:50.454Z,48.27
2019-03-22T03:58:20.880Z,48.10
2019-03-22T04:00:52.263Z,48.03
2019-03-22T04:03:23.428Z,49.03
2019-03-22T04:05:53.745Z,46.47
2019-03-22T04:08:23.957Z,50.13
2019-03-22T04:10:54.357Z,49.67
2019-03-22T04:13:24.478Z,47.73
2019-03-22T04:15:54.597Z,46.47
2019-03-22T04:18:24.735Z,48.80
2019-03-22T04:20:55.130Z,50.23
2019-03-22T04:23:25.339Z,47.93
2019-03-22T04:25:55.785Z,50.67
2019-03-22T04:28:26.364Z,49.40
2019-03-22T04:30:56.416Z,48.67
2019-03-22T04:33:29.469Z,48.83
2019-03-22T04:35:59.559Z,50.57
2019-03-22T04:38:29.794Z,47.63
2019-03-22T04:41:00.262Z,50.40
2019-03-22T04:43:30.377Z,48.63
2019-03-22T04:46:01.000Z,48.07
2019-03-22T04:48:32.414Z,51.23
2019-03-22T04:51:02.594Z,49.23
2019-03-22T04:53:37.310Z,47.57
2019-03-22T04:56:09.758Z,51.07
2019-03-22T04:58:40.756Z,47.40
2019-03-22T05:01:10.888Z,50.90
2019-03-22T05:03:41.023Z,51.53
2019-03-22T05:06:11.159Z,46.90
2019-03-22T05:08:41.346Z,47.37
2019-03-22T05:11:13.233Z,49.20
2019-03-22T05:13:44.689Z,49.07
2019-03-22T05:16:15.307Z,48.27
2019-03-22T05:18:47.081Z,46.70
2019-03-22T05:21:17.218Z,49.07
2019-03-22T05:23:48.508Z,48.90
2019-03-22T05:26:18.742Z,46.77
2019-03-22T05:28:49.398Z,50.70
2019-03-22T05:31:43.936Z,66.40
2019-03-22T05:34:13.961Z,52.47
2019-03-22T05:36:44.042Z,49.97
2019-03-22T05:39:14.151Z,55.73
2019-03-22T05:41:44.204Z,49.83
2019-03-22T05:44:14.659Z,48.93
2019-03-22T05:46:44.623Z,66.77
2019-03-22T05:49:14.719Z,52.23
2019-03-22T05:51:45.128Z,52.00
2019-03-22T05:54:15.406Z,52.60
2019-03-22T05:56:45.525Z,53.83
2019-03-22T05:59:15.607Z,52.07
2019-03-22T06:01:45.734Z,51.77
2019-03-22T06:04:17.008Z,52.80
2019-03-22T06:06:48.447Z,53.10
2019-03-22T06:09:18.512Z,53.13
2019-03-22T06:11:48.566Z,52.10
2019-03-22T06:14:18.678Z,56.27
2019-03-22T06:16:48.786Z,52.07
2019-03-22T06:19:18.928Z,53.53
2019-03-22T06:21:49.030Z,54.50
2019-03-22T06:24:19.124Z,56.07
2019-03-22T06:26:49.281Z,55.23
2019-03-22T06:29:19.379Z,54.80
2019-03-22T06:31:49.390Z,72.20
2019-03-22T06:34:19.543Z,56.03
2019-03-22T06:36:49.621Z,56.93
2019-03-22T06:39:20.117Z,57.67
2019-03-22T06:41:50.202Z,72.17
2019-03-22T06:44:20.412Z,60.13
2019-03-22T06:46:50.494Z,57.50
2019-03-22T06:49:20.461Z,57.30
2019-03-22T06:51:50.614Z,55.77
2019-03-22T06:54:30.991Z,54.43
2019-03-22T06:56:51.920Z,57.33
2019-03-22T06:59:22.072Z,57.70
2019-03-22T07:01:52.203Z,58.70
2019-03-22T07:04:22.396Z,58.67
2019-03-22T07:06:52.463Z,56.90
2019-03-22T07:09:22.635Z,60.07
2019-03-22T07:11:52.703Z,77.70
2019-03-22T07:14:22.807Z,61.60
2019-03-22T07:16:52.897Z,61.20
2019-03-22T07:19:23.107Z,58.50
2019-03-22T07:21:53.212Z,59.20
2019-03-22T07:24:23.536Z,57.90
2019-03-22T07:26:56.363Z,59.20
2019-03-22T07:29:24.504Z,58.00
2019-03-22T07:31:54.569Z,59.00
2019-03-22T07:34:24.631Z,58.37
2019-03-22T07:36:54.701Z,57.80
2019-03-22T07:39:25.057Z,57.50
2019-03-22T07:41:55.443Z,76.67
2019-03-22T07:44:25.587Z,60.27
2019-03-22T07:46:55.723Z,60.70
2019-03-22T07:49:27.225Z,61.37
2019-03-22T07:51:58.317Z,74.97
2019-03-22T07:54:28.407Z,62.00
2019-03-22T07:56:58.501Z,74.27
2019-03-22T07:59:28.605Z,59.63
2019-03-22T08:01:58.652Z,60.93
2019-03-22T08:04:28.755Z,60.07
2019-03-22T08:07:01.222Z,57.30
2019-03-22T08:09:29.934Z,57.43
2019-03-22T08:11:59.966Z,58.60
2019-03-22T08:14:30.080Z,58.33
2019-03-22T08:17:00.363Z,59.57
2019-03-22T08:19:30.527Z,59.40
2019-03-22T08:22:00.600Z,59.47
2019-03-22T08:24:35.849Z,59.97
2019-03-22T08:27:22.303Z,61.47
2019-03-22T08:30:04.701Z,62.37
2019-03-22T08:32:35.124Z,76.00
2019-03-22T08:35:09.024Z,62.57
2019-03-22T08:37:51.745Z,62.13
2019-03-22T08:40:10.064Z,61.90
2019-03-22T08:42:40.652Z,62.07
2019-03-22T08:45:11.503Z,61.90
2019-03-22T08:48:00.261Z,60.10
2019-03-22T08:50:30.550Z,60.30
2019-03-22T08:53:00.914Z,57.30
2019-03-22T08:55:31.202Z,57.30
2019-03-22T08:58:01.533Z,55.87
2019-03-22T09:00:39.608Z,56.30
2019-03-22T09:03:14.815Z,55.00
2019-03-22T09:05:45.937Z,56.43
2019-03-22T09:08:18.120Z,57.63
2019-03-22T09:10:52.422Z,57.70
2019-03-22T09:13:22.588Z,57.47
2019-03-22T09:15:54.163Z,58.53
2019-03-22T09:18:24.668Z,59.97
2019-03-22T09:21:04.515Z,59.13
2019-03-22T09:23:34.556Z,60.10
2019-03-22T09:26:05.733Z,64.70
2019-03-22T09:28:36.448Z,64.33
2019-03-22T09:31:10.821Z,63.00
2019-03-22T09:33:38.219Z,63.30
2019-03-22T09:36:10.167Z,61.90
2019-03-22T09:38:46.069Z,62.50
2019-03-22T09:41:21.704Z,76.72
2019-03-22T09:43:55.583Z,76.73
2019-03-22T09:46:26.063Z,64.03
2019-03-22T09:48:58.682Z,61.70
2019-03-22T09:51:29.366Z,70.85
2019-03-22T09:54:17.583Z,63.80
2019-03-22T09:56:47.957Z,62.62
2019-03-22T09:59:18.468Z,59.88
2019-03-22T10:01:48.987Z,53.87
2019-03-22T10:04:19.414Z,55.55
2019-03-22T10:06:49.848Z,53.68
2019-03-22T10:09:20.270Z,53.25
2019-03-22T10:11:50.639Z,54.70
2019-03-22T10:14:21.465Z,54.60
2019-03-22T10:16:51.517Z,55.00
2019-03-22T10:19:24.666Z,52.00
2019-03-22T10:21:54.977Z,49.83
2019-03-22T10:24:25.362Z,50.88
2019-03-22T10:26:55.881Z,52.85
2019-03-22T10:29:26.186Z,48.08
2019-03-22T10:31:56.679Z,46.18
2019-03-22T10:34:27.515Z,47.15
2019-03-22T10:36:59.409Z,44.65
2019-03-22T10:39:32.056Z,45.30
2019-03-22T10:42:05.050Z,45.15
2019-03-22T10:44:35.309Z,43.23
2019-03-22T10:47:08.904Z,46.60
2019-03-22T10:49:41.863Z,43.55
2019-03-22T10:52:12.939Z,41.20
2019-03-22T10:54:41.514Z,40.83
2019-03-22T10:57:12.103Z,41.60
2019-03-22T10:59:42.355Z,41.13
2019-03-22T11:02:12.785Z,42.60
2019-03-22T11:04:44.613Z,40.75
2019-03-22T11:07:14.968Z,37.35
2019-03-22T11:09:45.279Z,41.15
2019-03-22T11:12:15.780Z,39.30
2019-03-22T11:14:46.088Z,40.73
2019-03-22T11:17:16.558Z,38.23
2019-03-22T11:19:46.872Z,38.98
2019-03-22T11:58:17.773Z,36.80
2019-03-22T12:22:50.417Z,36.90
2019-03-22T12:25:23.247Z,36.70
2019-03-22T12:27:53.553Z,37.20
2019-03-22T12:30:23.799Z,42.10
2019-03-22T12:32:55.095Z,38.02
2019-03-22T12:35:27.853Z,37.08
2019-03-22T12:37:58.412Z,33.38
2019-03-22T12:40:28.897Z,33.28
2019-03-22T12:42:59.044Z,32.88
2019-03-22T12:45:29.416Z,35.98
2019-03-22T12:48:00.548Z,33.48
2019-03-22T12:50:30.976Z,36.13
2019-03-22T12:53:01.390Z,34.35
2019-03-22T12:55:33.337Z,30.90
2019-03-22T12:58:03.568Z,32.17
2019-03-22T13:00:33.687Z,34.00
2019-03-22T13:03:03.999Z,32.15
2019-03-22T13:05:36.451Z,31.73
2019-03-22T13:08:07.918Z,29.18
2019-03-22T13:10:38.095Z,22.17
2019-03-22T13:13:08.399Z,24.02
2019-03-22T13:15:38.543Z,23.50
2019-03-22T13:18:08.796Z,22.22
2019-03-22T13:20:39.938Z,21.15
2019-03-22T13:23:12.278Z,19.95
2019-03-22T13:25:42.326Z,19.60
2019-03-22T13:28:16.703Z,19.07
2019-03-22T13:30:47.261Z,20.90
2019-03-22T13:33:20.926Z,19.17
2019-03-22T13:35:48.586Z,17.77
2019-03-22T13:38:24.850Z,17.40
2019-03-22T13:40:55.054Z,20.10
2019-03-22T13:43:26.447Z,18.02
2019-03-22T13:45:58.919Z,19.85
2019-03-22T13:48:32.631Z,19.82
2019-03-22T13:51:03.106Z,16.10
2019-03-22T13:53:35.450Z,18.32
2019-03-22T13:56:05.760Z,16.90
2019-03-22T13:58:35.861Z,16.25
2019-03-22T14:01:06.212Z,16.87
2019-03-22T14:03:37.302Z,17.20
2019-03-22T14:06:09.855Z,17.42
2019-03-22T14:08:40.181Z,18.42
2019-03-22T14:11:10.270Z,21.33
2019-03-22T14:13:40.402Z,20.20
2019-03-22T14:16:10.633Z,20.82
2019-03-22T14:18:46.642Z,20.35
2019-03-22T14:21:16.825Z,19.50
2019-03-22T14:23:50.669Z,20.50
2019-03-22T14:26:26.326Z,19.48
2019-03-22T14:28:56.790Z,19.32
2019-03-22T14:31:29.594Z,20.45
2019-03-22T14:34:00.840Z,19.25
2019-03-22T14:36:31.409Z,20.23
2019-03-22T14:39:01.480Z,18.25
2019-03-22T14:41:31.541Z,18.87
2019-03-22T14:44:03.659Z,18.65
2019-03-22T14:46:36.283Z,19.65
2019-03-22T14:49:09.170Z,19.52
2019-03-22T14:51:47.435Z,18.65
2019-03-22T14:54:18.087Z,18.48
2019-03-22T14:56:48.264Z,21.62
2019-03-22T14:59:21.353Z,18.77
2019-03-22T15:01:51.483Z,18.25
2019-03-22T15:04:21.681Z,19.77
2019-03-22T15:06:54.720Z,18.55
2019-03-22T15:09:26.186Z,18.27
2019-03-22T15:11:56.360Z,18.62
2019-03-22T15:14:51.622Z,18.77
2019-03-22T15:17:33.504Z,18.12
2019-03-22T15:20:19.095Z,17.52
2019-03-22T15:23:20.304Z,18.27
2019-03-22T15:26:08.217Z,17.20
2019-03-22T15:29:17.854Z,17.27
2019-03-22T15:32:05.862Z,16.67
2019-03-22T15:35:04.159Z,17.32
2019-03-22T15:37:52.017Z,17.57
2019-03-22T15:40:24.453Z,17.62
2019-03-22T15:42:54.722Z,18.00
2019-03-22T15:45:30.201Z,17.60
2019-03-22T15:48:03.023Z,17.90
2019-03-22T15:50:33.358Z,16.45
2019-03-22T15:53:16.931Z,17.32
2019-03-22T15:55:47.209Z,18.12
2019-03-22T15:58:17.468Z,18.70
2019-03-22T16:00:49.545Z,19.20
2019-03-22T16:03:17.812Z,19.40
2019-03-22T16:05:48.048Z,18.15
2019-03-22T16:08:18.296Z,18.12
2019-03-22T16:10:53.699Z,18.48
2019-03-22T16:13:26.005Z,18.37
2019-03-22T16:15:57.111Z,17.12
2019-03-22T16:18:27.600Z,18.15
2019-03-22T16:21:00.475Z,17.85
2019-03-22T16:23:30.712Z,18.30
2019-03-22T16:26:00.828Z,17.60
2019-03-22T16:28:35.691Z,18.30
2019-03-22T16:31:07.735Z,17.98
2019-03-22T16:33:38.221Z,18.25
2019-03-22T16:36:11.432Z,20.00
2019-03-22T16:38:38.929Z,17.75
2019-03-22T16:41:14.347Z,19.65
2019-03-22T16:43:47.232Z,21.90
2019-03-22T16:46:17.492Z,19.87
2019-03-22T16:48:49.804Z,21.17
2019-03-22T16:51:18.260Z,19.75
2019-03-22T16:53:48.470Z,18.77
2019-03-22T16:56:18.601Z,18.95
2019-03-22T16:58:48.820Z,19.17
2019-03-22T17:01:24.928Z,19.17
2019-03-22T17:04:04.373Z,17.98
2019-03-22T17:06:32.015Z,18.52
2019-03-22T17:09:02.809Z,17.30
2019-03-22T17:11:33.398Z,16.20
2019-03-22T17:14:03.720Z,16.30
2019-03-22T17:16:33.953Z,16.85
2019-03-22T17:19:07.110Z,16.97
2019-03-22T17:21:42.125Z,22.02
2019-03-22T17:24:12.262Z,86.43
2019-03-22T17:26:42.545Z,25.55
2019-03-22T17:29:16.077Z,25.37
2019-03-22T17:31:46.655Z,49.63
2019-03-22T17:34:19.243Z,28.43
2019-03-22T17:36:52.385Z,22.03
2019-03-22T17:39:22.728Z,19.70
2019-03-22T17:41:58.137Z,16.20
2019-03-22T17:44:28.375Z,14.40
2019-03-22T17:47:01.596Z,14.03
2019-03-22T17:49:34.323Z,13.70
2019-03-22T17:52:04.691Z,15.15
2019-03-22T17:54:42.924Z,14.33
2019-03-22T17:57:18.825Z,14.90
2019-03-22T17:59:46.714Z,13.30
2019-03-22T18:02:17.077Z,13.03
2019-03-22T18:04:51.725Z,12.80
2019-03-22T18:07:27.939Z,13.30
2019-03-22T18:09:59.266Z,13.37
2019-03-22T18:12:29.758Z,12.63
2019-03-22T18:14:59.973Z,12.57
2019-03-22T18:17:30.223Z,12.53
2019-03-22T18:20:00.463Z,12.40
2019-03-22T18:22:30.650Z,12.93
2019-03-22T18:25:01.372Z,12.23
2019-03-22T18:27:31.670Z,12.03
2019-03-22T18:30:02.014Z,12.93
2019-03-22T18:32:32.094Z,13.57
2019-03-22T18:35:02.856Z,12.97
2019-03-22T18:37:35.837Z,13.33
2019-03-22T18:40:11.567Z,14.33
2019-03-22T18:42:49.405Z,14.27
2019-03-22T18:45:19.610Z,14.43
2019-03-22T18:47:49.898Z,14.80
2019-03-22T18:50:27.032Z,14.03
2019-03-22T18:52:55.306Z,16.65
2019-03-22T18:55:25.789Z,17.90
2019-03-22T18:58:01.646Z,17.20
2019-03-22T19:00:34.399Z,15.10
2019-03-22T19:03:04.756Z,13.80
2019-03-22T19:05:37.203Z,13.63
2019-03-22T19:08:05.303Z,15.23
2019-03-22T19:10:39.861Z,16.63
2019-03-22T19:13:09.443Z,15.95
2019-03-22T19:15:39.852Z,14.00
2019-03-22T19:18:10.025Z,13.67
2019-03-22T19:20:42.091Z,14.23
2019-03-22T19:23:12.220Z,13.57
2019-03-22T19:25:44.964Z,14.40
2019-03-22T19:28:15.621Z,14.70
2019-03-22T19:30:46.313Z,15.20
2019-03-22T19:33:16.519Z,13.80
2019-03-22T19:35:46.913Z,14.73
2019-03-22T19:38:16.933Z,14.80
2019-03-22T19:40:46.905Z,13.97
2019-03-22T19:43:16.876Z,14.67
2019-03-22T19:45:46.851Z,14.10
2019-03-22T19:48:16.816Z,14.30
2019-03-22T19:50:46.821Z,13.90
2019-03-22T19:53:16.788Z,14.53
2019-03-22T19:55:46.779Z,15.90
2019-03-22T19:58:16.759Z,15.97
2019-03-22T20:00:46.744Z,16.47
2019-03-22T20:03:16.704Z,14.93
2019-03-22T20:05:46.710Z,15.50
2019-03-22T20:08:16.687Z,15.33
2019-03-22T20:10:48.876Z,16.33
2019-03-22T20:13:16.691Z,16.13
2019-03-22T20:15:46.673Z,15.10
2019-03-22T20:18:16.648Z,15.20
2019-03-22T20:20:46.657Z,13.87
2019-03-22T20:23:16.642Z,14.70
2019-03-22T20:25:46.642Z,14.63
2019-03-22T20:28:16.645Z,15.10
2019-03-22T20:30:46.602Z,14.80
2019-03-22T20:33:16.559Z,14.73
2019-03-22T20:35:46.564Z,14.90
2019-03-22T20:38:16.771Z,14.70
2019-03-22T20:40:46.779Z,17.60
2019-03-22T20:43:16.795Z,18.53
2019-03-22T20:45:46.858Z,18.48
2019-03-22T20:48:16.841Z,16.40
2019-03-22T20:50:46.906Z,16.37
2019-03-22T20:53:16.889Z,22.75
2019-03-22T20:55:46.907Z,18.87
2019-03-22T20:58:16.872Z,21.87
2019-03-22T21:00:46.891Z,27.17
2019-03-22T21:03:16.885Z,26.97
2019-03-22T21:05:46.850Z,32.83
2019-03-22T21:08:16.818Z,32.30
2019-03-22T21:10:46.759Z,32.37
2019-03-22T21:13:16.734Z,34.13
2019-03-22T21:15:46.715Z,29.73
2019-03-22T21:18:16.699Z,33.07
2019-03-22T21:20:46.668Z,31.27
2019-03-22T21:23:16.619Z,32.23
2019-03-22T21:25:46.610Z,42.45
2019-03-22T21:28:16.924Z,33.47
2019-03-22T21:30:46.919Z,32.83
2019-03-22T21:33:16.881Z,36.13
2019-03-22T21:35:46.872Z,34.83
2019-03-22T21:38:16.833Z,35.23
2019-03-22T21:40:46.825Z,32.53
2019-03-22T21:43:16.787Z,35.03
2019-03-22T21:45:46.778Z,34.67
2019-03-22T21:48:16.797Z,33.37
2019-03-22T21:50:46.763Z,34.87
2019-03-22T21:53:16.733Z,36.10
2019-03-22T21:55:46.696Z,36.37
2019-03-22T21:58:16.706Z,38.93
2019-03-22T22:00:46.699Z,39.63
2019-03-22T22:03:16.598Z,43.27
2019-03-22T22:05:47.980Z,41.80
2019-03-22T22:08:16.535Z,45.37
2019-03-22T22:10:46.503Z,58.83
2019-03-22T22:13:16.484Z,51.67
2019-03-22T22:15:46.477Z,52.50
2019-03-22T22:18:16.446Z,54.60
2019-03-22T22:20:46.415Z,72.10
2019-03-22T22:23:16.470Z,55.67
2019-03-22T22:25:46.381Z,56.63
2019-03-22T22:28:16.359Z,55.70
2019-03-22T22:30:46.348Z,53.80
2019-03-22T22:33:16.303Z,53.70
2019-03-22T22:35:47.010Z,50.07
2019-03-22T22:38:16.281Z,55.80
2019-03-22T22:40:46.250Z,52.97
2019-03-22T22:43:16.231Z,69.47
2019-03-22T22:45:46.236Z,54.37
2019-03-22T22:48:16.211Z,54.20
2019-03-22T22:50:46.202Z,54.90
2019-03-22T22:53:16.244Z,52.67
2019-03-22T22:55:46.226Z,53.90
2019-03-22T22:58:16.269Z,53.33
2019-03-22T23:00:46.280Z,55.37
2019-03-22T23:03:16.276Z,56.47
2019-03-22T23:05:46.246Z,57.03
2019-03-22T23:08:16.236Z,55.50
2019-03-22T23:10:46.221Z,54.37
2019-03-22T23:13:16.187Z,54.70
2019-03-22T23:15:46.174Z,55.57
2019-03-22T23:18:16.128Z,56.00
2019-03-22T23:20:46.136Z,56.10
2019-03-22T23:23:16.124Z,57.57
2019-03-22T23:25:46.096Z,58.60
2019-03-22T23:28:16.150Z,61.13
2019-03-22T23:30:46.114Z,58.67
2019-03-22T23:33:16.109Z,59.47
2019-03-22T23:35:46.090Z,59.53
2019-03-22T23:38:16.063Z,57.23
2019-03-22T23:40:46.059Z,60.83
2019-03-22T23:43:16.020Z,60.53
2019-03-22T23:45:45.984Z,58.60
2019-03-22T23:48:15.966Z,74.77
2019-03-22T23:50:45.923Z,62.13
2019-03-22T23:53:15.921Z,59.70
2019-03-22T23:55:45.863Z,57.17
2019-03-22T23:58:15.851Z,57.13
